This is the latest recevied weather packets stored in our database for station/object N6RDS. If no packets are shown the sender has not sent any weather packets the latest 10 day(s).
| Time | Temp. | Humidity | Pressure | Rain* | Wind** | Luminosity | Snow |
|---|---|---|---|---|---|---|---|
| 1777641577 | 2.78° C | 50% | 1023.3 hPa | 0 mm | - | 24 W/m² | - |
| 1777641272 | 2.78° C | 49% | 1023.1 hPa | 0 mm | - | 22 W/m² | - |
| 1777640969 | 2.78° C | 49% | 1023.2 hPa | 0 mm | - | 21 W/m² | - |
| 1777640666 | 2.78° C | 49% | 1023.2 hPa | 0 mm | - | 16 W/m² | - |
| 1777640362 | 2.78° C | 48% | 1022.9 hPa | 0 mm | - | 13 W/m² | - |
| 1777640059 | 3.33° C | 45% | 1022.9 hPa | 0 mm | - | 10 W/m² | - |
| 1777639756 | 4.44° C | 44% | 1022.7 hPa | 0 mm | - | 8 W/m² | - |
| 1777639454 | 5° C | 41% | 1022.7 hPa | 0 mm | - | 6 W/m² | - |
| 1777639150 | 5.56° C | 40% | 1022.7 hPa | 0 mm | - | 4 W/m² | - |
| 1777638847 | 6.11° C | 38% | 1022.6 hPa | 0 mm | - | 2 W/m² | - |
| 1777638542 | 6.67° C | 35% | 1022.4 hPa | 0 mm | - | 1 W/m² | - |
| 1777638239 | 3.89° C | 43% | 1022.7 hPa | 0 mm | - | 0 W/m² | - |
| 1777637935 | 3.89° C | 41% | 1022.3 hPa | 0 mm | - | 0 W/m² | - |
| 1777637631 | 3.33° C | 46% | 1022.6 hPa | 0 mm | - | 0 W/m² | - |
| 1777637329 | 2.78° C | 45% | 1022.3 hPa | 0 mm | - | 0 W/m² | - |
| 1777637025 | 2.78° C | 47% | 1022.1 hPa | 0 mm | - | 0 W/m² | - |
| 1777636721 | 2.78° C | 46% | 1022.4 hPa | 0 mm | - | 0 W/m² | - |
| 1777636417 | 3.33° C | 46% | 1022.3 hPa | 0 mm | - | 0 W/m² | - |
| 1777636113 | 3.89° C | 44% | 1022.3 hPa | 0 mm | - | 0 W/m² | - |
| 1777635808 | 4.44° C | 43% | 1022.2 hPa | 0 mm | - | 0 W/m² | - |
| 1777635505 | 5° C | 42% | 1022.2 hPa | 0 mm | - | 0 W/m² | - |
| 1777635202 | 6.11° C | 38% | 1022.2 hPa | 0 mm | - | 0 W/m² | - |
| 1777634898 | 5° C | 38% | 1022.2 hPa | 0 mm | - | 0 W/m² | - |
| 1777634596 | 2.78° C | 46% | 1022.1 hPa | 0 mm | - | 0 W/m² | - |
| 1777634293 | 2.78° C | 44% | 1022.2 hPa | 0 mm | - | 0 W/m² | - |
* Rain latest hour (hover to see other rain measurements)
** Current wind speed in m/s (hover to see current wind gust speed)